DW8622 Weather Reports


Display with metric or nautical units.
time (UTC)temp
F
wind
direction
speed
MPH
gust
MPH
rain 1hr
in
rain 24hr
in
rain mn
in
humidity
%
barometer
mb
20200329152512 42 56 14.0 26.0 0.00 0.00 0.00 48 1032.6
20200329152011 43 57 13.0 26.0 0.00 0.00 0.00 47 1032.6
20200329151511 43 57 13.0 26.0 0.00 0.00 0.00 48 1032.5
20200329151011 43 54 13.0 27.0 0.00 0.00 0.00 47 1032.4
20200329150511 43 60 15.0 27.0 0.00 0.00 0.00 47 1032.4
20200329150011 43 62 14.0 26.0 0.00 0.00 0.00 47 1032.4
20200329145511 44 57 13.0 26.0 0.00 0.00 0.00 46 1032.3
20200329145011 44 60 14.0 26.0 0.00 0.00 0.00 47 1032.3
20200329144511 44 57 13.0 26.0 0.00 0.00 0.00 47 1032.3
20200329144011 44 49 13.0 25.0 0.00 0.00 0.00 46 1032.2
20200329143511 43 51 14.0 25.0 0.00 0.00 0.00 46 1032.1
20200329143011 44 56 14.0 29.0 0.00 0.00 0.00 45 1032.2
20200329142511 44 61 15.0 29.0 0.00 0.00 0.00 47 1032.0
20200329142011 44 56 16.0 28.0 0.00 0.00 0.00 46 1032.1
20200329141511 44 55 14.0 23.0 0.00 0.00 0.00 47 1032.2
20200329141011 44 58 13.0 26.0 0.00 0.00 0.00 47 1032.2
20200329140511 44 61 13.0 26.0 0.00 0.00 0.00 49 1032.1
20200329140011 44 62 14.0 27.0 0.00 0.00 0.00 48 1032.1
20200329135511 44 58 14.0 29.0 0.00 0.00 0.00 49 1032.1
20200329135011 45 56 15.0 30.0 0.00 0.00 0.00 49 1032.0
20200329134510 45 59 14.0 30.0 0.00 0.00 0.00 49 1031.9
20200329134011 45 55 13.0 27.0 0.00 0.00 0.00 53 1031.9
20200329133511 45 53 15.0 29.0 0.00 0.00 0.00 51 1031.9
20200329133011 45 59 15.0 29.0 0.00 0.00 0.00 51 1031.9
20200329132511 46 62 15.0 27.0 0.00 0.00 0.00 52 1031.8
20200329132011 45 64 15.0 25.0 0.00 0.00 0.00 51 1031.8
20200329131510 45 62 16.0 28.0 0.00 0.00 0.00 52 1031.8
20200329131011 45 60 16.0 28.0 0.00 0.00 0.00 52 1031.9
20200329130510 45 59 16.0 26.0 0.00 0.00 0.00 51 1031.8
20200329130011 45 59 16.0 27.0 0.00 0.00 0.00 51 1031.7
20200329125511 45 58 15.0 29.0 0.00 0.00 0.00 52 1031.8
20200329125010 45 57 15.0 29.0 0.00 0.00 0.00 52 1031.7
20200329124511 46 62 17.0 30.0 0.00 0.00 0.00 54 1031.8
20200329124011 46 63 16.0 30.0 0.00 0.00 0.00 53 1031.6
20200329123511 46 60 14.0 25.0 0.00 0.00 0.00 53 1031.6
20200329123011 45 58 14.0 25.0 0.00 0.00 0.00 52 1031.7
20200329122511 45 62 15.0 29.0 0.00 0.00 0.00 55 1031.6
20200329122011 45 65 18.0 32.0 0.00 0.00 0.00 52 1031.7
20200329121511 45 55 17.0 32.0 0.00 0.00 0.00 52 1031.7
20200329121011 45 50 15.0 26.0 0.00 0.00 0.00 52 1031.5
20200329120511 44 52 16.0 29.0 0.00 0.00 0.00 53 1031.7
20200329120011 44 55 17.0 29.0 0.00 0.00 0.00 51 1031.7
20200329115511 46 64 18.0 28.0 0.00 0.00 0.00 52 1031.6
20200329115011 46 66 19.0 29.0 0.00 0.00 0.00 50 1031.6
20200329114510 45 66 18.0 30.0 0.00 0.00 0.00 49 1031.6
20200329114010 45 64 16.0 31.0 0.00 0.00 0.00 49 1031.6
20200329113510 45 63 16.0 31.0 0.00 0.00 0.00 50 1031.7
20200329113010 45 62 16.0 30.0 0.00 0.00 0.00 52 1031.6
20200329112511 45 60 16.0 28.0 0.00 0.00 0.00 57 1031.6
20200329112011 44 59 15.0 29.0 0.00 0.00 0.00 55 1031.5
20200329111510 45 61 15.0 29.0 0.00 0.00 0.00 55 1031.6
20200329111010 45 60 15.0 24.0 0.00 0.00 0.00 58 1031.5
20200329110510 45 57 16.0 31.0 0.00 0.00 0.00 56 1031.7
20200329110010 45 53 16.0 31.0 0.00 0.00 0.00 57 1031.4
20200329105510 45 58 14.0 25.0 0.00 0.00 0.00 55 1031.5
20200329105010 44 65 15.0 28.0 0.00 0.00 0.00 59 1031.5
20200329104510 43 62 16.0 28.0 0.00 0.00 0.00 60 1031.5
20200329104010 43 58 15.0 26.0 0.00 0.00 0.00 58 1031.5
20200329103510 44 53 15.0 26.0 0.00 0.00 0.00 58 1031.4
20200329103010 45 56 14.0 26.0 0.00 0.00 0.00 58 1031.4
20200329102510 45 65 17.0 30.0 0.00 0.00 0.00 59 1031.4
20200329102010 44 69 19.0 33.0 0.00 0.00 0.00 57 1031.3
20200329101510 44 68 18.0 33.0 0.00 0.00 0.00 58 1031.2
20200329101010 44 64 17.0 30.0 0.00 0.00 0.00 58 1031.2
20200329100510 44 67 17.0 32.0 0.00 0.00 0.00 60 1031.3
20200329100010 44 67 17.0 32.0 0.00 0.00 0.00 61 1031.2
20200329095510 44 64 16.0 30.0 0.00 0.00 0.00 62 1031.2
20200329095010 42 61 15.0 30.0 0.00 0.00 0.00 65 1031.1
20200329094510 42 57 15.0 24.0 0.00 0.00 0.00 64 1031.1
20200329094010 43 59 16.0 32.0 0.00 0.00 0.00 65 1031.2
20200329093509 44 63 17.0 32.0 0.00 0.00 0.00 62 1031.1
20200329093009 44 60 17.0 29.0 0.00 0.00 0.00 61 1031.0
20200329092509 44 52 14.0 25.0 0.00 0.00 0.00 63 1031.0
20200329092010 44 57 13.0 22.0 0.00 0.00 0.00 66 1030.7
20200329091509 43 63 14.0 25.0 0.00 0.00 0.00 66 1030.7
20200329091010 44 62 15.0 28.0 0.00 0.00 0.00 63 1030.7
20200329090510 44 63 16.0 28.0 0.00 0.00 0.00 63 1030.8
20200329090009 44 56 15.0 27.0 0.00 0.00 0.00 65 1030.7
20200329085510 44 52 13.0 25.0 0.00 0.00 0.00 66 1030.6
20200329085009 44 62 15.0 27.0 0.00 0.00 0.00 66 1030.6
20200329084509 44 65 16.0 27.0 0.00 0.00 0.00 66 1030.4
20200329084010 44 59 15.0 26.0 0.00 0.00 0.00 66 1030.5
20200329083510 44 56 14.0 26.0 0.00 0.00 0.00 65 1030.4
20200329083009 44 57 14.0 27.0 0.00 0.00 0.00 66 1030.4
20200329082509 44 60 14.0 27.0 0.00 0.00 0.00 66 1030.3
20200329082010 44 66 15.0 26.0 0.00 0.00 0.00 68 1030.4
20200329081510 44 65 17.0 26.0 0.00 0.00 0.00 66 1030.3
20200329081010 44 62 14.0 25.0 0.00 0.00 0.00 68 1030.3
20200329080510 43 62 13.0 28.0 0.00 0.00 0.00 72 1030.2
20200329080009 43 64 15.0 28.0 0.00 0.00 0.00 70 1030.2
20200329075509 43 66 14.0 28.0 0.00 0.00 0.00 71 1030.1
20200329075010 43 65 13.0 28.0 0.00 0.00 0.00 73 1030.0
20200329074509 43 59 12.0 26.0 0.00 0.00 0.00 73 1029.9
20200329074010 43 60 12.0 23.0 0.00 0.00 0.00 73 1029.8
20200329073509 43 61 12.0 23.0 0.00 0.00 0.00 74 1029.8
20200329073010 43 60 12.0 23.0 0.00 0.00 0.00 76 1029.7
20200329072510 42 63 12.0 22.0 0.00 0.00 0.00 78 1029.6
20200329072009 42 63 9.0 22.0 0.00 0.00 0.00 80 1029.6
20200329071510 42 57 7.0 15.0 0.00 0.00 0.00 82 1029.5
20200329071009 42 44 8.0 15.0 0.00 0.00 0.00 82 1029.4
20200329070510 41 33 8.0 14.0 0.00 0.00 0.00 83 1029.3
20200329070010 41 31 8.0 14.0 0.00 0.00 0.00 84 1029.2
20200329065509 40 31 8.0 13.0 0.00 0.00 0.00 84 1029.1
20200329065010 40 31 7.0 13.0 0.00 0.00 0.00 84 1029.1
20200329064509 40 31 7.0 14.0 0.00 0.00 0.00 84 1029.1
20200329064010 39 32 8.0 14.0 0.00 0.00 0.00 85 1029.0
20200329063509 39 31 9.0 14.0 0.00 0.00 0.00 84 1029.0
20200329063009 39 51 6.0 11.0 0.00 0.00 0.00 84 1028.9
20200329062509 43 51 6.0 11.0 0.00 0.00 0.00 82 1028.8
20200329062009 43 51 6.0 11.0 0.00 0.00 0.00 82 1028.7
20200329061509 43 51 6.0 11.0 0.00 0.00 0.00 82 1028.6
20200329061009 43 51 6.0 11.0 0.00 0.00 0.00 82 1028.5
20200329060509 43 51 6.0 11.0 0.00 0.00 0.00 82 1028.4
20200329060009 43 51 6.0 11.0 0.00 0.00 0.00 82 1028.3
20200329055509 43 51 6.0 11.0 0.00 0.00 0.00 82 1028.2
20200329055009 43 51 6.0 11.0 0.00 0.00 0.00 82 1028.1
20200329054509 43 51 6.0 11.0 0.00 0.00 0.00 82 1028.1
20200329054010 43 51 6.0 11.0 0.00 0.00 0.00 82 1028.1
20200329053509 43 51 6.0 11.0 0.00 0.00 0.00 82 1028.0
20200329053009 43 51 6.0 11.0 0.00 0.00 0.00 82 1027.9
20200329052509 43 51 6.0 11.0 0.00 0.00 0.00 82 1027.9
20200329052009 43 51 6.0 11.0 0.00 0.00 0.00 82 1027.9
20200329051509 43 51 6.0 11.0 0.00 0.00 0.00 82 1027.8
20200329051009 43 51 6.0 11.0 0.00 0.00 0.00 82 1027.8
20200329050510 43 51 6.0 11.0 0.00 0.00 0.00 82 1027.8
20200329050010 43 51 6.0 11.0 0.00 0.00 0.00 82 1027.8
20200329045509 43 51 6.0 11.0 0.00 0.00 0.00 82 1027.8
20200329045010 43 51 6.0 11.0 0.00 0.00 0.00 82 1027.7
20200329044509 43 51 6.0 11.0 0.00 0.00 0.00 82 1027.8
20200329044009 43 51 6.0 11.0 0.00 0.00 0.00 82 1027.7
20200329043509 43 51 6.0 11.0 0.00 0.00 0.00 82 1027.7
20200329043009 43 51 6.0 11.0 0.00 0.00 0.00 82 1027.7
20200329042509 43 51 6.0 11.0 0.00 0.00 0.00 82 1027.7
20200329042010 43 51 6.0 11.0 0.00 0.00 0.00 82 1027.7
20200329041510 43 51 6.0 11.0 0.00 0.00 0.00 82 1027.6
20200329041010 43 51 6.0 11.0 0.00 0.00 0.00 82 1027.6
20200329040509 43 51 6.0 11.0 0.00 0.00 0.00 82 1027.6
20200329040009 43 51 6.0 11.0 0.00 0.00 0.00 82 1027.6
20200329035509 43 51 6.0 11.0 0.00 0.00 0.00 82 1027.5
20200329035009 43 51 6.0 11.0 0.00 0.00 0.00 82 1027.5
20200329034509 43 51 6.0 11.0 0.00 0.00 0.00 82 1027.5
20200329034009 43 51 6.0 11.0 0.00 0.00 0.00 82 1027.6
20200329033509 43 51 6.0 11.0 0.00 0.00 0.00 82 1027.6
20200329033009 43 51 6.0 11.0 0.00 0.00 0.00 82 1027.5
20200329032509 43 51 6.0 11.0 0.00 0.00 0.00 82 1027.5
20200329032009 43 51 6.0 11.0 0.00 0.00 0.00 82 1027.5
20200329031509 43 51 6.0 11.0 0.00 0.00 0.00 82 1027.6
20200329031009 43 51 6.0 11.0 0.00 0.00 0.00 82 1027.6
20200329030509 43 51 6.0 11.0 0.00 0.00 0.00 82 1027.7
20200329030009 43 51 6.0 11.0 0.00 0.00 0.00 82 1027.6
20200329025509 43 51 6.0 11.0 0.00 0.00 0.00 82 1027.5
20200329025009 43 51 6.0 11.0 0.00 0.00 0.00 82 1027.5
20200329024509 43 51 6.0 11.0 0.00 0.00 0.00 82 1027.5
20200329024009 43 51 6.0 11.0 0.00 0.00 0.00 82 1027.5
20200329023508 43 51 6.0 11.0 0.00 0.00 0.00 82 1027.5
20200329023009 43 51 6.0 11.0 0.00 0.00 0.00 82 1027.5
20200329022509 43 51 6.0 11.0 0.00 0.00 0.00 82 1027.6
20200329022009 43 51 6.0 11.0 0.00 0.00 0.00 82 1027.6
20200329021509 43 51 6.0 11.0 0.00 0.00 0.00 82 1027.5
20200329021009 43 51 6.0 11.0 0.00 0.00 0.00 82 1027.5
20200329020508 43 51 6.0 11.0 0.00 0.00 0.00 82 1027.4
20200329020009 43 51 6.0 11.0 0.00 0.00 0.00 82 1027.6
20200329015509 43 51 6.0 11.0 0.00 0.00 0.00 82 1027.6
20200329015009 43 51 6.0 11.0 0.00 0.00 0.00 82 1027.6
20200329014509 43 51 6.0 11.0 0.00 0.00 0.00 82 1027.5
20200329014009 43 51 6.0 11.0 0.00 0.00 0.00 82 1027.6
20200329013509 43 51 6.0 11.0 0.00 0.00 0.00 82 1027.7
20200329013009 43 51 6.0 11.0 0.00 0.00 0.00 82 1027.7
20200329012509 43 51 6.0 11.0 0.00 0.00 0.00 82 1027.7
20200329012009 43 51 6.0 11.0 0.00 0.00 0.00 82 1027.6
20200329011509 43 51 6.0 11.0 0.00 0.00 0.00 82 1027.6
20200329011008 43 51 6.0 11.0 0.00 0.00 0.00 82 1027.6
20200329010509 43 51 6.0 11.0 0.00 0.00 0.00 82 1027.8
20200329010009 43 51 6.0 11.0 0.00 0.00 0.00 82 1027.7
20200329005509 43 51 6.0 11.0 0.00 0.00 0.00 82 1027.7
20200329005009 43 51 6.0 11.0 0.00 0.00 0.00 82 1027.8
20200329004508 43 51 6.0 11.0 0.00 0.00 0.00 82 1027.8
20200329004008 43 51 6.0 11.0 0.00 0.00 0.00 82 1027.8
20200329003509 43 51 6.0 11.0 0.00 0.00 0.00 82 1027.8
20200329003008 43 51 6.0 11.0 0.00 0.00 0.00 82 1027.8
20200329002508 43 51 6.0 11.0 0.00 0.00 0.00 82 1027.8
20200329002009 43 51 6.0 11.0 0.00 0.00 0.00 82 1027.8
20200329001508 43 51 6.0 11.0 0.00 0.00 0.00 82 1027.9
20200329001008 43 51 6.0 11.0 0.00 0.00 0.00 82 1028.0
20200329000508 43 51 6.0 11.0 0.00 0.00 0.00 82 1027.9
20200329000009 43 51 6.0 11.0 0.00 0.00 0.00 82 1028.0
20200328235509 43 51 6.0 11.0 0.00 0.00 0.00 82 1028.0
20200328235008 43 51 6.0 11.0 0.00 0.00 0.00 82 1028.1
20200328234508 43 51 6.0 11.0 0.00 0.00 0.00 82 1028.1
20200328234008 43 51 6.0 11.0 0.00 0.00 0.00 82 1028.1
20200328233508 43 51 6.0 11.0 0.00 0.00 0.00 82 1028.1
20200328233008 43 51 6.0 11.0 0.00 0.00 0.00 82 1028.1
20200328232508 43 51 6.0 11.0 0.00 0.00 0.00 82 1028.0
20200328232008 43 51 6.0 11.0 0.00 0.00 0.00 82 1028.1
20200328231508 43 51 6.0 11.0 0.00 0.00 0.00 82 1028.1
20200328231008 43 51 6.0 11.0 0.00 0.00 0.00 82 1028.1
20200328230508 43 51 6.0 11.0 0.00 0.00 0.00 82 1028.1
20200328230009 43 51 6.0 11.0 0.00 0.00 0.00 82 1028.1
20200328225507 43 51 6.0 11.0 0.00 0.00 0.00 82 1028.1
20200328225008 43 51 6.0 11.0 0.00 0.00 0.00 82 1028.1
20200328224508 43 51 6.0 11.0 0.00 0.00 0.00 82 1028.2
20200328224008 43 51 6.0 11.0 0.00 0.00 0.00 82 1028.3
20200328223508 43 51 6.0 11.0 0.00 0.00 0.00 82 1028.1
20200328223008 43 51 6.0 11.0 0.00 0.00 0.00 82 1028.1
20200328222508 43 51 6.0 11.0 0.00 0.00 0.00 82 1028.1
20200328222008 43 51 6.0 11.0 0.00 0.00 0.00 82 1028.1
20200328221508 43 51 6.0 11.0 0.00 0.00 0.00 82 1028.1
20200328221008 43 51 6.0 11.0 0.00 0.00 0.00 82 1028.3
20200328220508 43 51 6.0 11.0 0.00 0.00 0.00 82 1028.3
20200328220008 43 51 6.0 11.0 0.00 0.00 0.00 82 1028.2
20200328215507 43 51 6.0 11.0 0.00 0.00 0.00 82 1028.1
20200328215008 43 51 6.0 11.0 0.00 0.00 0.00 82 1028.1
20200328214508 43 51 6.0 11.0 0.00 0.00 0.00 82 1028.1
20200328214008 43 51 6.0 11.0 0.00 0.00 0.00 82 1028.1
20200328213507 43 51 6.0 11.0 0.00 0.00 0.00 82 1028.0
20200328213007 43 51 6.0 11.0 0.00 0.00 0.00 82 1028.0
20200328212507 43 51 6.0 11.0 0.00 0.00 0.00 82 1027.9
20200328212008 43 51 6.0 11.0 0.00 0.00 0.00 82 1027.9
20200328211508 43 51 6.0 11.0 0.00 0.00 0.00 82 1027.8
20200328211008 43 51 6.0 11.0 0.00 0.00 0.00 82 1027.8
20200328210507 43 51 6.0 11.0 0.00 0.00 0.00 82 1027.8
20200328210007 43 51 6.0 11.0 0.00 0.00 0.00 82 1027.8
20200328205508 43 51 6.0 11.0 0.00 0.00 0.00 82 1027.7
20200328205008 43 51 6.0 11.0 0.00 0.00 0.00 82 1027.7
20200328204508 43 51 6.0 11.0 0.00 0.00 0.00 82 1027.6
20200328204007 43 51 6.0 11.0 0.00 0.00 0.00 82 1027.6
20200328203508 43 51 6.0 11.0 0.00 0.00 0.00 82 1027.5
20200328203008 43 51 6.0 11.0 0.00 0.00 0.00 82 1027.5
20200328202507 43 51 6.0 11.0 0.00 0.00 0.00 82 1027.5
20200328202008 43 51 6.0 11.0 0.00 0.00 0.00 82 1027.4
20200328201507 43 51 6.0 11.0 0.00 0.00 0.00 82 1027.3
20200328201007 43 51 6.0 11.0 0.00 0.00 0.00 82 1027.3
20200328200508 43 51 6.0 11.0 0.00 0.00 0.00 82 1027.2
20200328200007 43 51 6.0 11.0 0.00 0.00 0.00 82 1027.2
20200328195508 43 51 6.0 11.0 0.00 0.00 0.00 82 1027.2
20200328195008 43 51 6.0 11.0 0.00 0.00 0.00 82 1027.2
20200328194507 43 51 6.0 11.0 0.00 0.00 0.00 82 1027.2
20200328194007 43 51 6.0 11.0 0.00 0.00 0.00 82 1027.1
20200328193507 43 51 6.0 11.0 0.00 0.00 0.00 82 1027.0
20200328193008 43 51 6.0 11.0 0.00 0.00 0.00 82 1026.9
20200328192507 43 51 6.0 11.0 0.00 0.00 0.00 82 1026.9
20200328192007 43 51 6.0 11.0 0.00 0.00 0.00 82 1026.8
20200328191507 43 51 6.0 11.0 0.00 0.00 0.00 82 1026.8
20200328191007 43 51 6.0 11.0 0.00 0.00 0.00 82 1026.7
20200328190507 43 51 6.0 11.0 0.00 0.00 0.00 82 1026.7
20200328190007 43 51 6.0 11.0 0.00 0.00 0.00 82 1026.6
20200328185508 43 51 6.0 11.0 0.00 0.00 0.00 82 1026.7
20200328185007 43 51 6.0 11.0 0.00 0.00 0.00 82 1026.6
20200328184507 43 51 6.0 11.0 0.00 0.00 0.00 82 1026.5
20200328184007 43 45 3.0 11.0 0.00 0.00 0.00 82 1026.5
20200328183507 43 51 4.0 10.0 0.00 0.00 0.00 81 1026.4
20200328183007 43 49 4.0 12.0 0.00 0.00 0.00 81 1026.4
20200328182507 44 48 4.0 12.0 0.00 0.00 0.00 81 1026.3
20200328182007 44 46 5.0 12.0 0.00 0.00 0.00 81 1026.2
20200328181507 44 49 5.0 12.0 0.00 0.00 0.00 80 1026.1
20200328181007 44 52 5.0 14.0 0.00 0.00 0.00 80 1026.0
20200328180507 44 52 7.0 17.0 0.00 0.00 0.00 79 1026.0
20200328180007 44 51 8.0 17.0 0.00 0.00 0.00 79 1025.9
20200328175507 45 55 8.0 15.0 0.00 0.00 0.00 79 1025.8
20200328175007 45 54 8.0 16.0 0.00 0.00 0.00 79 1025.8
20200328174507 45 53 8.0 16.0 0.00 0.00 0.00 79 1025.7
20200328174007 45 56 7.0 17.0 0.00 0.00 0.00 79 1025.6
20200328173507 45 51 8.0 19.0 0.00 0.00 0.00 79 1025.6
20200328173007 46 53 8.0 19.0 0.00 0.00 0.00 78 1025.5
20200328172507 46 55 8.0 16.0 0.00 0.00 0.00 77 1025.4
20200328172007 46 53 8.0 16.0 0.00 0.00 0.00 77 1025.3
20200328171507 46 51 8.0 16.0 0.00 0.00 0.00 77 1025.3
20200328171007 46 50 9.0 20.0 0.00 0.00 0.00 77 1025.2
20200328170506 47 51 9.0 20.0 0.00 0.00 0.00 76 1025.2
20200328170006 47 51 9.0 19.0 0.00 0.00 0.00 76 1025.1
20200328165507 47 50 9.0 20.0 0.00 0.00 0.00 75 1025.1
20200328165007 47 50 10.0 20.0 0.00 0.00 0.00 75 1025.0
20200328164507 47 45 12.0 23.0 0.00 0.00 0.00 74 1025.1
20200328164007 47 44 11.0 23.0 0.00 0.00 0.00 74 1025.0
20200328163507 48 52 9.0 22.0 0.00 0.00 0.00 74 1024.9
20200328163007 48 52 9.0 21.0 0.00 0.00 0.00 75 1024.9
20200328162507 48 47 12.0 22.0 0.00 0.00 0.00 75 1024.7
20200328162007 48 47 11.0 22.0 0.00 0.00 0.00 75 1024.9
20200328161507 48 51 10.0 20.0 0.00 0.00 0.00 75 1024.7
20200328161006 48 52 11.0 21.0 0.00 0.00 0.00 74 1024.8
20200328160506 49 55 11.0 23.0 0.00 0.00 0.00 73 1024.8
20200328160006 49 62 11.0 23.0 0.00 0.00 0.00 74 1024.8
20200328155507 49 65 12.0 22.0 0.00 0.00 0.00 74 1024.8
20200328155007 49 62 11.0 22.0 0.00 0.00 0.00 74 1024.8
20200328154506 49 62 10.0 22.0 0.00 0.00 0.00 72 1024.8
20200328153948 50 66 9.0 19.0 0.00 0.00 0.00 73 1024.8